San Gregorio, CA

1:43 PM PDT on July 28, 2015 (GMT -0700)
Woodland Vista - WZ6KAT | | Change Station
CLOSE
Current Station
Personal Weather Station
Location: La Honda, CA
Elevation: 748 ft
Nearby Weather Stations

Elev 748 ft 37.32 °N, 122.27 °W | Updated 19 seconds ago

Clear
Clear
84.7 °F
Feels Like 83 °F
N
0.0
Wind Variable Wind from SE
Gusts 0.0 mph

Today
High -- | Low -- °F
--% Chance of Precip.
Yesterday
High -- | Low -- °F
Precip. -- in
6:10 AM 8:20 PM
Waxing Gibbous, 91% visible
Pressure 29.88 in
Visibility 10.0 miles
Clouds Clear
Heat Index 83 °F
Dew Point 52 °F
Humidity 33%
Rainfall 0.00 in
Snow Depth Not available.
UV 8.0 out of 12
Pollen 4.20 out of 12
Air Quality Not available.
Flu Activity Not available.
METAR KSQL 281948Z VRB05KT 10SM SKC 29/19 A2988

More Conditions Fewer Conditions

Pressure 29.88 in
Visibility 10.0 miles
Clouds Clear
Heat Index 83 °F
Dew Point 52 °F
Humidity 33%
Rainfall 0.00 in
Snow Depth Not available.
UV 8.0 out of 12
Pollen 4.20 out of 12
Air Quality Not available.
Flu Activity Not available.
METAR KSQL 281948Z VRB05KT 10SM SKC 29/19 A2988

More Conditions Fewer Conditions

A strong ridge of high pressure will aid in providing some of the warmest temperatures of the Summer thus far along the West Coast, while dangerously high heat index values up to 110 degrees will be possible from southern Iowa through northern Louisiana. Residents are urged to take precaution while working outside.

10-Day Weather Forecast

×

Almanac

Astronomy

Jul. 28, 2015 Rise Set
Actual Time
Civil Twilight
Nautical Twilight
Astronomical Twilight
Moon
Length of Visible Light
Length of Day
Tomorrow will be .
, % of the Moon is Illuminated

Today's Extremes

State Highs State Lows

Community

WunderPhotos

Upload Photos

1,841,942 photos uploaded!

WunderBlogs® & News

Nearby

Air Quality

  Air Quality AQ Index Pollutant
Not available.

Snow Depth

Station Depth Elevation

Earthquake Activity

City Distance Mag. Time & Date
Minimum magnitude displayed is 2.5.

Coastal Water Temperatures

Place Temperature

Stations

Nearby Weather Stations

Station Location Temp. Windchill Dew Point Humidity Wind Precip. Elev Updated Type